createdAt,value
2023-03-31T00:01:44.764Z,99109.00
2023-03-31T00:04:13.797Z,99102.00
2023-03-31T00:06:42.500Z,99096.00
2023-03-31T00:09:11.810Z,99103.00
2023-03-31T00:11:45.619Z,99094.00
2023-03-31T00:14:13.652Z,99094.00
2023-03-31T00:16:41.802Z,99089.00
2023-03-31T00:19:16.304Z,99087.00
2023-03-31T00:21:48.132Z,99081.00
2023-03-31T00:24:16.450Z,99075.00
2023-03-31T00:26:44.312Z,99073.00
2023-03-31T00:29:12.981Z,99070.00
2023-03-31T00:31:40.663Z,99067.00
2023-03-31T00:34:08.626Z,99067.00
2023-03-31T00:36:46.307Z,99058.00
2023-03-31T00:39:18.420Z,99056.00
2023-03-31T00:41:46.178Z,99062.00
2023-03-31T00:44:24.892Z,99060.00
2023-03-31T00:47:02.418Z,99063.00
2023-03-31T00:49:34.438Z,99056.00
2023-03-31T00:52:22.738Z,99053.00
2023-03-31T00:54:54.855Z,99052.00
2023-03-31T00:57:22.667Z,99051.00
2023-03-31T00:59:51.178Z,99047.00
2023-03-31T01:02:21.024Z,99039.00
2023-03-31T01:04:51.189Z,99039.00
2023-03-31T01:07:23.297Z,99021.00
2023-03-31T01:09:51.038Z,99022.00
2023-03-31T01:12:19.718Z,99025.00
2023-03-31T01:14:47.647Z,99020.00
2023-03-31T01:17:22.509Z,99012.00
2023-03-31T01:19:56.301Z,99000.00
2023-03-31T01:22:27.590Z,99006.00
2023-03-31T01:25:14.282Z,98997.00
2023-03-31T01:27:42.697Z,98999.00
2023-03-31T01:30:16.432Z,98996.00
2023-03-31T01:33:03.160Z,98997.00
2023-03-31T01:35:31.374Z,98994.00
2023-03-31T01:38:02.432Z,98991.00
2023-03-31T01:40:33.045Z,98988.00
2023-03-31T01:43:13.002Z,98984.00
2023-03-31T01:45:54.172Z,98982.00
2023-03-31T01:48:23.816Z,98984.00
2023-03-31T01:50:55.700Z,98981.00
2023-03-31T01:53:26.197Z,98984.00
2023-03-31T01:55:53.938Z,98973.00
2023-03-31T01:58:22.442Z,98976.00
2023-03-31T02:00:52.310Z,98973.00
2023-03-31T02:03:32.158Z,98968.00
2023-03-31T02:06:02.073Z,98964.00
2023-03-31T02:08:30.413Z,98963.00
2023-03-31T02:10:59.926Z,98956.00
2023-03-31T02:13:28.796Z,98952.00
2023-03-31T02:15:58.212Z,98948.00
2023-03-31T02:18:27.089Z,98941.00
2023-03-31T02:20:55.064Z,98934.00
2023-03-31T02:23:23.864Z,98935.00
2023-03-31T02:25:52.396Z,98935.00
2023-03-31T02:28:24.532Z,98939.00
2023-03-31T02:30:56.675Z,98932.00
2023-03-31T02:33:24.425Z,98928.00
2023-03-31T02:35:52.068Z,98925.00
2023-03-31T02:38:20.799Z,98919.00
2023-03-31T02:40:48.482Z,98916.00
2023-03-31T02:43:16.390Z,98911.00
2023-03-31T02:45:45.334Z,98911.00
2023-03-31T02:48:23.845Z,98912.00
2023-03-31T02:51:07.792Z,98908.00
2023-03-31T02:53:40.904Z,98889.00
2023-03-31T02:56:16.065Z,98892.00
2023-03-31T02:58:59.364Z,98873.00
2023-03-31T03:01:41.201Z,98869.00
2023-03-31T03:04:28.148Z,98870.00
2023-03-31T03:07:00.463Z,98866.00
2023-03-31T03:09:57.863Z,98866.00
2023-03-31T03:12:26.901Z,98856.00
2023-03-31T03:15:01.656Z,98858.00
2023-03-31T03:17:30.918Z,98854.00
2023-03-31T03:20:01.935Z,98847.00
2023-03-31T03:22:29.601Z,98851.00
2023-03-31T03:24:57.325Z,98850.00
2023-03-31T03:27:24.889Z,98839.00
2023-03-31T03:29:53.039Z,98841.00
2023-03-31T03:32:20.929Z,98834.00
2023-03-31T03:34:49.054Z,98848.00
2023-03-31T03:37:16.802Z,98845.00
2023-03-31T03:39:44.517Z,98841.00
2023-03-31T03:42:12.322Z,98837.00
2023-03-31T03:44:40.423Z,98830.00
2023-03-31T03:47:08.243Z,98831.00
2023-03-31T03:49:35.978Z,98829.00
2023-03-31T03:52:03.794Z,98819.00
2023-03-31T03:54:31.706Z,98814.00
2023-03-31T03:56:59.601Z,98812.00
2023-03-31T03:59:27.651Z,98805.00
2023-03-31T04:02:20.523Z,98802.00
2023-03-31T04:05:13.177Z,98796.00
2023-03-31T04:07:41.165Z,98785.00
2023-03-31T04:10:09.141Z,98787.00
2023-03-31T04:12:36.882Z,98782.00
2023-03-31T04:15:05.136Z,98768.00
2023-03-31T04:17:33.404Z,98769.00
2023-03-31T04:20:06.068Z,98765.00
2023-03-31T04:22:41.326Z,98764.00
2023-03-31T04:25:17.382Z,98744.00
2023-03-31T04:27:51.213Z,98749.00
2023-03-31T04:30:25.250Z,98738.00
2023-03-31T04:32:55.069Z,98731.00
2023-03-31T04:35:24.038Z,98731.00
2023-03-31T04:37:52.993Z,98729.00
2023-03-31T04:40:20.528Z,98719.00
2023-03-31T04:42:48.236Z,98706.00
2023-03-31T04:45:16.023Z,98716.00
2023-03-31T04:47:43.878Z,98707.00
2023-03-31T04:50:15.337Z,98693.00
2023-03-31T04:52:44.914Z,98681.00
2023-03-31T04:55:12.862Z,98676.00
2023-03-31T04:57:40.698Z,98670.00
2023-03-31T05:00:09.814Z,98671.00
2023-03-31T05:02:37.918Z,98661.00
2023-03-31T05:05:06.468Z,98660.00
2023-03-31T05:07:34.172Z,98663.00
2023-03-31T05:10:02.168Z,98655.00
2023-03-31T05:12:29.967Z,98647.00
2023-03-31T05:14:57.750Z,98634.00
2023-03-31T05:17:26.115Z,98632.00
2023-03-31T05:19:53.878Z,98638.00
2023-03-31T05:22:21.981Z,98632.00
2023-03-31T05:24:50.054Z,98631.00
2023-03-31T05:27:17.893Z,98623.00
2023-03-31T05:29:46.357Z,98622.00
2023-03-31T05:32:14.023Z,98618.00
2023-03-31T05:34:43.717Z,98611.00
2023-03-31T05:37:11.531Z,98601.00
2023-03-31T05:39:40.319Z,98616.00
2023-03-31T05:42:08.091Z,98610.00
2023-03-31T05:44:36.013Z,98601.00
2023-03-31T05:47:04.110Z,98601.00
2023-03-31T05:49:32.470Z,98601.00
2023-03-31T05:52:00.369Z,98605.00
2023-03-31T05:54:28.105Z,98594.00
2023-03-31T05:56:56.153Z,98603.00
2023-03-31T05:59:23.969Z,98609.00
2023-03-31T06:01:51.827Z,98606.00
2023-03-31T06:04:19.669Z,98609.00
2023-03-31T06:06:50.554Z,98605.00
2023-03-31T06:09:18.682Z,98607.00
2023-03-31T06:11:50.381Z,98610.00
2023-03-31T06:14:18.713Z,98602.00
2023-03-31T06:16:48.441Z,98596.00
2023-03-31T06:19:16.358Z,98596.00
2023-03-31T06:21:44.365Z,98577.00
2023-03-31T06:24:12.188Z,98572.00
2023-03-31T06:26:40.248Z,98570.00
2023-03-31T06:29:08.018Z,98561.00
2023-03-31T06:31:37.290Z,98546.00
2023-03-31T06:34:05.545Z,98549.00
2023-03-31T06:36:36.023Z,98546.00
2023-03-31T06:39:03.727Z,98539.00
2023-03-31T06:41:31.550Z,98538.00
2023-03-31T06:43:59.259Z,98542.00
2023-03-31T06:46:27.188Z,98544.00
2023-03-31T06:48:55.953Z,98542.00
2023-03-31T06:51:24.087Z,98543.00
2023-03-31T06:53:51.861Z,98529.00
2023-03-31T06:56:19.616Z,98527.00
2023-03-31T06:58:48.586Z,98525.00
2023-03-31T07:01:16.406Z,98530.00
2023-03-31T07:03:44.193Z,98526.00
2023-03-31T07:06:12.386Z,98530.00
2023-03-31T07:08:40.423Z,98529.00
2023-03-31T07:11:08.345Z,98529.00
2023-03-31T07:13:36.423Z,98538.00
2023-03-31T07:16:05.656Z,98530.00
2023-03-31T07:18:35.605Z,98523.00
2023-03-31T07:21:05.674Z,98518.00
2023-03-31T07:23:36.229Z,98516.00
2023-03-31T07:26:04.136Z,98514.00
2023-03-31T07:28:31.982Z,98511.00
2023-03-31T07:30:59.773Z,98523.00
2023-03-31T07:33:27.515Z,98525.00
2023-03-31T07:36:10.314Z,98515.00
2023-03-31T07:38:39.956Z,98510.00
2023-03-31T07:41:11.097Z,98504.00
2023-03-31T07:43:39.142Z,98505.00
2023-03-31T07:46:09.848Z,98500.00
2023-03-31T07:48:37.964Z,98490.00
2023-03-31T07:51:05.853Z,98495.00
2023-03-31T07:53:37.322Z,98499.00
2023-03-31T07:56:05.604Z,98494.00
2023-03-31T07:58:33.582Z,98488.00
2023-03-31T08:01:02.610Z,98489.00
2023-03-31T08:03:32.289Z,98495.00
2023-03-31T08:06:00.243Z,98488.00
2023-03-31T08:08:28.042Z,98483.00
2023-03-31T08:10:56.496Z,98482.00
2023-03-31T08:13:24.544Z,98470.00
2023-03-31T08:15:52.818Z,98472.00
2023-03-31T08:18:20.547Z,98467.00
2023-03-31T08:20:50.250Z,98458.00
2023-03-31T08:23:18.082Z,98453.00
2023-03-31T08:25:47.589Z,98449.00
2023-03-31T08:28:18.849Z,98449.00
2023-03-31T08:30:46.540Z,98438.00
2023-03-31T08:33:14.647Z,98440.00
2023-03-31T08:35:42.386Z,98436.00
2023-03-31T08:38:10.257Z,98427.00
2023-03-31T08:40:38.243Z,98430.00
2023-03-31T08:43:11.947Z,98410.00
2023-03-31T08:45:40.424Z,98419.00
2023-03-31T08:48:22.570Z,98413.00
2023-03-31T08:50:53.540Z,98401.00
2023-03-31T08:53:23.912Z,98386.00
2023-03-31T08:55:53.126Z,98375.00
2023-03-31T08:58:20.932Z,98382.00
2023-03-31T09:01:09.401Z,98381.00
2023-03-31T09:03:47.302Z,98384.00
2023-03-31T09:06:16.797Z,98376.00
2023-03-31T09:08:45.173Z,98369.00
2023-03-31T09:11:13.378Z,98369.00
2023-03-31T09:13:53.061Z,98370.00
2023-03-31T09:16:30.409Z,98381.00
2023-03-31T09:19:00.225Z,98378.00
2023-03-31T09:21:47.376Z,98366.00
2023-03-31T09:24:15.308Z,98370.00
2023-03-31T09:26:53.314Z,98363.00
2023-03-31T09:29:41.522Z,98365.00
2023-03-31T09:32:18.084Z,98352.00
2023-03-31T09:34:47.917Z,98342.00
2023-03-31T09:37:16.013Z,98347.00
2023-03-31T09:39:43.862Z,98340.00
2023-03-31T09:42:13.021Z,98330.00
2023-03-31T09:44:42.070Z,98335.00
2023-03-31T09:47:12.701Z,98338.00
2023-03-31T09:49:40.741Z,98341.00
2023-03-31T09:52:32.008Z,98340.00
2023-03-31T09:55:01.701Z,98332.00
2023-03-31T09:57:33.804Z,98336.00
2023-03-31T10:00:05.699Z,98331.00
2023-03-31T10:02:45.876Z,98334.00
2023-03-31T10:05:30.918Z,98325.00
2023-03-31T10:08:20.116Z,98325.00
2023-03-31T10:10:52.607Z,98327.00
2023-03-31T10:13:21.777Z,98320.00
2023-03-31T10:15:52.783Z,98322.00
2023-03-31T10:18:21.199Z,98331.00
2023-03-31T10:20:50.908Z,98326.00
2023-03-31T10:23:19.287Z,98336.00
2023-03-31T10:25:47.543Z,98341.00
2023-03-31T10:28:27.163Z,98338.00
2023-03-31T10:30:56.021Z,98338.00
2023-03-31T10:33:25.267Z,98340.00
2023-03-31T10:35:57.156Z,98335.00
2023-03-31T10:38:32.025Z,98332.00
2023-03-31T10:41:00.007Z,98335.00
2023-03-31T10:43:29.559Z,98329.00
2023-03-31T10:46:00.794Z,98324.00
2023-03-31T10:48:35.708Z,98322.00
2023-03-31T10:51:07.144Z,98328.00
2023-03-31T10:53:51.420Z,98320.00
2023-03-31T10:56:22.674Z,98325.00
2023-03-31T10:59:10.485Z,98318.00
2023-03-31T11:01:43.809Z,98319.00
2023-03-31T11:04:21.266Z,98312.00
2023-03-31T11:07:07.710Z,98308.00
2023-03-31T11:09:38.946Z,98309.00
2023-03-31T11:12:12.980Z,98309.00
2023-03-31T11:14:47.128Z,98311.00
2023-03-31T11:17:21.569Z,98297.00
2023-03-31T11:20:24.837Z,98305.00
2023-03-31T11:22:55.793Z,98296.00
2023-03-31T11:25:32.885Z,98289.00
2023-03-31T11:28:30.648Z,98293.00
2023-03-31T11:31:01.655Z,98289.00
2023-03-31T11:33:33.013Z,98281.00
2023-03-31T11:36:13.756Z,98288.00
2023-03-31T11:38:49.145Z,98285.00
2023-03-31T11:41:21.898Z,98282.00
2023-03-31T11:43:51.707Z,98273.00
2023-03-31T11:46:21.256Z,98263.00
2023-03-31T11:48:55.534Z,98260.00
2023-03-31T11:51:27.379Z,98257.00
2023-03-31T11:53:56.205Z,98262.00
2023-03-31T11:56:24.278Z,98254.00
2023-03-31T11:58:53.381Z,98244.00
2023-03-31T12:01:32.365Z,98250.00
2023-03-31T12:04:20.844Z,98258.00
2023-03-31T12:06:49.541Z,98254.00
2023-03-31T12:09:26.415Z,98251.00
2023-03-31T12:12:06.176Z,98251.00
2023-03-31T12:14:35.826Z,98247.00
2023-03-31T12:17:03.913Z,98245.00
2023-03-31T12:19:44.817Z,98249.00
2023-03-31T12:22:17.291Z,98239.00
2023-03-31T12:24:45.227Z,98239.00
2023-03-31T12:27:16.372Z,98250.00
2023-03-31T12:29:48.538Z,98245.00
2023-03-31T12:32:20.205Z,98241.00
2023-03-31T12:34:58.828Z,98244.00
2023-03-31T12:37:41.101Z,98239.00
2023-03-31T12:40:17.806Z,98235.00
2023-03-31T12:42:51.442Z,98242.00
2023-03-31T12:45:19.644Z,98243.00
2023-03-31T12:48:06.559Z,98240.00
2023-03-31T12:50:49.571Z,98241.00
2023-03-31T12:53:17.408Z,98232.00
2023-03-31T12:55:48.533Z,98233.00
2023-03-31T12:58:36.423Z,98232.00
2023-03-31T13:01:15.099Z,98222.00
2023-03-31T13:03:43.626Z,98223.00
2023-03-31T13:06:12.409Z,98222.00
2023-03-31T13:08:59.125Z,98213.00
2023-03-31T13:11:36.708Z,98214.00
2023-03-31T13:14:12.393Z,98207.00
2023-03-31T13:16:40.670Z,98200.00
2023-03-31T13:19:09.782Z,98200.00
2023-03-31T13:22:00.183Z,98193.00
2023-03-31T13:24:29.422Z,98195.00
2023-03-31T13:26:59.501Z,98185.00
2023-03-31T13:29:40.796Z,98187.00
2023-03-31T13:32:14.886Z,98184.00
2023-03-31T13:34:51.536Z,98176.00
2023-03-31T13:37:37.284Z,98171.00
2023-03-31T13:40:12.473Z,98156.00
2023-03-31T13:42:59.374Z,98156.00
2023-03-31T13:45:34.578Z,98165.00
2023-03-31T13:48:22.508Z,98155.00
2023-03-31T13:50:52.359Z,98156.00
2023-03-31T13:53:33.334Z,98148.00
2023-03-31T13:56:05.020Z,98148.00
2023-03-31T13:58:39.279Z,98152.00
2023-03-31T14:01:18.909Z,98149.00
2023-03-31T14:03:46.754Z,98148.00
2023-03-31T14:06:47.792Z,98145.00
2023-03-31T14:09:26.377Z,98146.00
2023-03-31T14:11:54.321Z,98143.00
2023-03-31T14:14:24.102Z,98147.00
2023-03-31T14:16:52.748Z,98139.00
2023-03-31T14:19:39.204Z,98146.00
2023-03-31T14:22:32.095Z,98139.00
2023-03-31T14:25:06.492Z,98134.00
2023-03-31T14:27:37.933Z,98132.00
2023-03-31T14:30:18.196Z,98136.00
2023-03-31T14:32:58.230Z,98129.00
2023-03-31T14:35:32.282Z,98141.00
2023-03-31T14:38:00.154Z,98146.00
2023-03-31T14:40:28.146Z,98156.00
2023-03-31T14:42:56.293Z,98152.00
2023-03-31T14:45:31.743Z,98150.00
2023-03-31T14:48:00.340Z,98151.00
2023-03-31T14:50:29.178Z,98146.00
2023-03-31T14:52:57.361Z,98152.00
2023-03-31T14:55:35.659Z,98147.00
2023-03-31T14:58:13.614Z,98141.00
2023-03-31T15:00:41.590Z,98140.00
2023-03-31T15:03:09.962Z,98139.00
2023-03-31T15:05:41.214Z,98132.00
2023-03-31T15:08:19.030Z,98131.00
2023-03-31T15:10:50.387Z,98135.00
2023-03-31T15:13:40.955Z,98130.00
2023-03-31T15:16:29.758Z,98140.00
2023-03-31T15:18:58.381Z,98135.00
2023-03-31T15:21:26.885Z,98124.00
2023-03-31T15:23:58.250Z,98136.00
2023-03-31T15:26:40.361Z,98128.00
2023-03-31T15:29:13.957Z,98126.00
2023-03-31T15:31:41.805Z,98138.00
2023-03-31T15:34:14.598Z,98129.00
2023-03-31T15:36:42.687Z,98121.00
2023-03-31T15:39:11.008Z,98122.00
2023-03-31T15:41:38.790Z,98124.00
2023-03-31T15:44:07.912Z,98119.00
2023-03-31T15:46:38.844Z,98120.00
2023-03-31T15:49:12.379Z,98127.00
2023-03-31T15:51:41.572Z,98124.00
2023-03-31T15:54:28.201Z,98125.00
2023-03-31T15:56:57.306Z,98124.00
2023-03-31T15:59:34.169Z,98125.00
2023-03-31T16:02:13.611Z,98126.00
2023-03-31T16:04:41.766Z,98122.00
2023-03-31T16:07:23.275Z,98121.00
2023-03-31T16:09:52.674Z,98129.00
2023-03-31T16:12:26.705Z,98118.00
2023-03-31T16:14:57.147Z,98118.00
2023-03-31T16:17:38.765Z,98118.00
2023-03-31T16:20:27.915Z,98119.00
2023-03-31T16:22:56.564Z,98117.00
2023-03-31T16:25:25.001Z,98120.00
2023-03-31T16:27:56.984Z,98119.00
2023-03-31T16:30:41.006Z,98119.00
2023-03-31T16:33:09.837Z,98120.00
2023-03-31T16:35:38.672Z,98121.00
2023-03-31T16:38:06.955Z,98117.00
2023-03-31T16:40:42.265Z,98124.00
2023-03-31T16:43:17.184Z,98122.00
2023-03-31T16:45:45.969Z,98121.00
2023-03-31T16:48:17.882Z,98128.00
2023-03-31T16:50:50.080Z,98122.00
2023-03-31T16:53:22.918Z,98117.00
2023-03-31T16:55:51.042Z,98129.00
2023-03-31T16:58:18.960Z,98126.00
2023-03-31T17:00:47.108Z,98122.00
2023-03-31T17:03:16.061Z,98121.00
2023-03-31T17:05:48.014Z,98119.00
2023-03-31T17:08:19.521Z,98117.00
2023-03-31T17:10:53.536Z,98111.00
2023-03-31T17:13:21.441Z,98114.00
2023-03-31T17:15:49.624Z,98119.00
2023-03-31T17:18:18.730Z,98114.00
2023-03-31T17:20:46.574Z,98118.00
2023-03-31T17:23:17.457Z,98114.00
2023-03-31T17:25:52.802Z,98122.00
2023-03-31T17:28:20.554Z,98123.00
2023-03-31T17:30:49.161Z,98119.00
2023-03-31T17:33:16.925Z,98119.00
2023-03-31T17:35:44.758Z,98119.00
2023-03-31T17:38:14.655Z,98126.00
2023-03-31T17:40:43.468Z,98121.00
2023-03-31T17:43:11.510Z,98133.00
2023-03-31T17:45:39.661Z,98134.00
2023-03-31T17:48:08.891Z,98133.00
2023-03-31T17:50:38.508Z,98135.00
2023-03-31T17:53:09.489Z,98140.00
2023-03-31T17:55:38.697Z,98139.00
2023-03-31T17:58:09.068Z,98139.00
2023-03-31T18:00:37.403Z,98137.00
2023-03-31T18:03:05.495Z,98143.00
2023-03-31T18:05:35.588Z,98149.00
2023-03-31T18:08:03.884Z,98145.00
2023-03-31T18:10:32.141Z,98141.00
2023-03-31T18:13:00.213Z,98144.00
2023-03-31T18:15:30.895Z,98151.00
2023-03-31T18:17:58.725Z,98140.00
2023-03-31T18:20:26.518Z,98147.00
2023-03-31T18:22:54.227Z,98154.00
2023-03-31T18:25:22.904Z,98151.00
2023-03-31T18:27:50.812Z,98149.00
2023-03-31T18:30:18.788Z,98156.00
2023-03-31T18:32:46.711Z,98153.00
2023-03-31T18:35:16.796Z,98163.00
2023-03-31T18:37:44.453Z,98161.00
2023-03-31T18:40:12.384Z,98160.00
2023-03-31T18:42:40.610Z,98161.00
2023-03-31T18:45:09.240Z,98163.00
2023-03-31T18:47:36.970Z,98168.00
2023-03-31T18:50:04.910Z,98174.00
2023-03-31T18:52:35.348Z,98172.00
2023-03-31T18:55:06.865Z,98179.00
2023-03-31T18:57:34.757Z,98176.00
2023-03-31T19:00:02.944Z,98175.00
2023-03-31T19:02:30.847Z,98178.00
2023-03-31T19:04:59.073Z,98180.00
2023-03-31T19:07:26.835Z,98184.00
2023-03-31T19:09:54.578Z,98182.00
2023-03-31T19:12:22.774Z,98173.00
2023-03-31T19:14:52.276Z,98181.00
2023-03-31T19:17:20.045Z,98183.00
2023-03-31T19:19:47.848Z,98183.00
2023-03-31T19:22:16.533Z,98177.00
2023-03-31T19:24:45.331Z,98176.00
2023-03-31T19:27:13.151Z,98189.00
2023-03-31T19:29:40.936Z,98180.00
2023-03-31T19:32:09.157Z,98184.00
2023-03-31T19:34:37.278Z,98184.00
2023-03-31T19:37:05.339Z,98178.00
2023-03-31T19:39:32.953Z,98186.00
2023-03-31T19:42:01.227Z,98181.00
2023-03-31T19:44:29.589Z,98184.00
2023-03-31T19:46:58.869Z,98181.00
2023-03-31T19:49:27.371Z,98190.00
2023-03-31T19:51:56.138Z,98189.00
2023-03-31T19:54:24.895Z,98190.00
2023-03-31T19:56:52.635Z,98188.00
2023-03-31T19:59:20.869Z,98192.00
2023-03-31T20:01:48.667Z,98189.00
2023-03-31T20:04:18.476Z,98194.00
2023-03-31T20:06:48.458Z,98200.00
2023-03-31T20:09:17.676Z,98198.00
2023-03-31T20:11:45.631Z,98196.00
2023-03-31T20:14:15.498Z,98194.00
2023-03-31T20:16:44.813Z,98197.00
2023-03-31T20:19:13.429Z,98195.00
2023-03-31T20:21:42.997Z,98187.00
2023-03-31T20:24:14.290Z,98185.00
2023-03-31T20:26:44.678Z,98189.00
2023-03-31T20:29:12.521Z,98182.00
2023-03-31T20:31:41.463Z,98183.00
2023-03-31T20:34:12.986Z,98181.00
2023-03-31T20:36:41.813Z,98185.00
2023-03-31T20:39:09.492Z,98181.00
2023-03-31T20:41:40.654Z,98179.00
2023-03-31T20:44:13.482Z,98184.00
2023-03-31T20:46:45.322Z,98181.00
2023-03-31T20:49:13.284Z,98179.00
2023-03-31T20:51:42.469Z,98171.00
2023-03-31T20:54:10.974Z,98174.00
2023-03-31T20:56:42.399Z,98180.00
2023-03-31T20:59:13.988Z,98172.00
2023-03-31T21:01:43.005Z,98169.00
2023-03-31T21:04:11.418Z,98170.00
2023-03-31T21:06:41.642Z,98175.00
2023-03-31T21:09:09.766Z,98170.00
2023-03-31T21:11:39.466Z,98171.00
2023-03-31T21:14:08.012Z,98177.00
2023-03-31T21:16:36.239Z,98176.00
2023-03-31T21:19:04.259Z,98175.00
2023-03-31T21:21:32.170Z,98176.00
2023-03-31T21:23:59.948Z,98176.00
2023-03-31T21:26:28.453Z,98171.00
2023-03-31T21:28:56.365Z,98176.00
2023-03-31T21:31:24.762Z,98177.00
2023-03-31T21:33:53.204Z,98175.00
2023-03-31T21:36:22.972Z,98178.00
2023-03-31T21:38:52.875Z,98176.00
2023-03-31T21:41:23.072Z,98171.00
2023-03-31T21:43:51.567Z,98178.00
2023-03-31T21:46:20.473Z,98170.00
2023-03-31T21:48:49.341Z,98169.00
2023-03-31T21:51:17.950Z,98169.00
2023-03-31T21:53:46.090Z,98165.00
2023-03-31T21:56:13.969Z,98171.00
2023-03-31T21:58:41.661Z,98177.00
2023-03-31T22:01:09.880Z,98180.00
2023-03-31T22:03:38.919Z,98176.00
2023-03-31T22:06:10.266Z,98182.00
2023-03-31T22:08:38.242Z,98175.00
2023-03-31T22:11:10.096Z,98179.00
2023-03-31T22:13:38.551Z,98180.00
2023-03-31T22:16:10.885Z,98187.00
2023-03-31T22:18:38.946Z,98181.00
2023-03-31T22:21:13.836Z,98183.00
2023-03-31T22:23:41.555Z,98185.00
2023-03-31T22:26:09.460Z,98177.00
2023-03-31T22:28:38.044Z,98184.00
2023-03-31T22:31:08.478Z,98190.00
2023-03-31T22:33:36.875Z,98185.00
2023-03-31T22:36:04.863Z,98188.00
2023-03-31T22:38:32.828Z,98189.00
2023-03-31T22:41:01.035Z,98188.00
2023-03-31T22:43:29.282Z,98185.00
2023-03-31T22:45:57.213Z,98189.00
2023-03-31T22:48:25.485Z,98189.00
2023-03-31T22:50:53.793Z,98188.00
2023-03-31T22:53:22.602Z,98190.00
2023-03-31T22:55:54.011Z,98186.00
2023-03-31T22:58:24.911Z,98190.00
2023-03-31T23:01:00.348Z,98188.00
2023-03-31T23:03:29.292Z,98185.00
2023-03-31T23:05:57.372Z,98184.00
2023-03-31T23:08:25.247Z,98190.00
2023-03-31T23:10:57.963Z,98192.00
2023-03-31T23:13:26.232Z,98189.00
2023-03-31T23:15:54.104Z,98185.00
2023-03-31T23:18:22.746Z,98187.00
2023-03-31T23:20:50.786Z,98185.00
2023-03-31T23:23:18.792Z,98178.00
2023-03-31T23:25:46.860Z,98180.00
2023-03-31T23:28:14.889Z,98181.00
2023-03-31T23:30:42.914Z,98182.00
2023-03-31T23:33:10.649Z,98182.00
2023-03-31T23:35:39.174Z,98175.00
2023-03-31T23:47:08.898Z,98178.00
2023-03-31T23:49:37.110Z,98178.00
2023-03-31T23:52:05.069Z,98166.00
2023-03-31T23:54:32.985Z,98169.00
2023-03-31T23:57:00.791Z,98164.00
2023-03-31T23:59:28.613Z,98164.00
